createdAt,value
2022-10-05T00:01:23.932Z,99119.88
2022-10-05T00:03:51.125Z,99120.63
2022-10-05T00:06:18.266Z,99117.28
2022-10-05T00:08:45.380Z,99101.66
2022-10-05T00:11:12.450Z,99097.41
2022-10-05T00:13:39.525Z,99097.41
2022-10-05T00:16:06.641Z,99101.78
2022-10-05T00:18:33.757Z,99097.53
2022-10-05T00:21:00.854Z,99100.00
2022-10-05T00:23:27.922Z,99100.13
2022-10-05T00:25:55.026Z,99090.63
2022-10-05T00:28:22.182Z,99088.91
2022-10-05T00:30:49.304Z,99080.22
2022-10-05T00:33:16.379Z,99087.19
2022-10-05T00:35:43.466Z,99084.59
2022-10-05T00:38:10.599Z,99088.03
2022-10-05T00:40:37.671Z,99092.41
2022-10-05T00:43:04.766Z,99095.84
2022-10-05T00:45:32.035Z,99094.19
2022-10-05T00:47:59.219Z,99105.41
2022-10-05T00:50:26.387Z,99099.38
2022-10-05T00:52:53.460Z,99089.91
2022-10-05T00:55:20.535Z,99087.41
2022-10-05T00:57:47.610Z,99086.47
2022-10-05T01:00:14.988Z,99083.06
2022-10-05T01:02:42.198Z,99077.94
2022-10-05T01:05:09.346Z,99085.75
2022-10-05T01:07:36.418Z,99074.41
2022-10-05T01:10:03.515Z,99062.34
2022-10-05T01:12:30.691Z,99056.31
2022-10-05T01:14:57.791Z,99062.34
2022-10-05T01:17:24.863Z,99067.53
2022-10-05T01:19:51.989Z,99074.41
2022-10-05T01:22:19.088Z,99066.72
2022-10-05T01:24:46.283Z,99080.53
2022-10-05T01:27:13.639Z,99082.31
2022-10-05T01:29:40.783Z,99078.88
2022-10-05T01:32:07.902Z,99083.25
2022-10-05T01:34:35.059Z,99077.22
2022-10-05T01:37:02.132Z,99075.53
2022-10-05T01:39:29.210Z,99078.97
2022-10-05T01:41:56.317Z,99085.03
2022-10-05T01:44:23.435Z,99078.13
2022-10-05T01:46:50.504Z,99086.75
2022-10-05T01:49:17.603Z,99087.69
2022-10-05T01:51:44.749Z,99086.75
2022-10-05T01:54:11.851Z,99078.25
2022-10-05T01:56:38.935Z,99083.31
2022-10-05T01:59:06.114Z,99086.88
2022-10-05T02:01:33.337Z,99092.91
2022-10-05T02:04:00.475Z,99095.59
2022-10-05T02:06:27.564Z,99094.78
2022-10-05T02:08:54.641Z,99097.38
2022-10-05T02:11:21.766Z,99093.94
2022-10-05T02:13:48.906Z,99089.56
2022-10-05T02:16:16.838Z,99080.94
2022-10-05T02:18:44.006Z,99070.56
2022-10-05T02:21:11.130Z,99064.50
2022-10-05T02:23:38.227Z,99056.69
2022-10-05T02:26:05.310Z,99052.44
2022-10-05T02:28:32.544Z,99049.94
2022-10-05T02:30:59.748Z,99055.97
2022-10-05T02:33:26.882Z,99054.22
2022-10-05T02:35:53.976Z,99048.19
2022-10-05T02:38:21.040Z,99053.47
2022-10-05T02:40:48.143Z,99046.50
2022-10-05T02:43:15.215Z,99044.81
2022-10-05T02:45:42.720Z,99047.44
2022-10-05T02:48:09.902Z,99055.22
2022-10-05T02:50:37.052Z,99051.78
2022-10-05T02:53:04.134Z,99050.84
2022-10-05T02:55:31.213Z,99050.03
2022-10-05T02:57:58.355Z,99050.03
2022-10-05T03:00:25.666Z,99052.75
2022-10-05T03:02:52.730Z,99057.09
2022-10-05T03:05:19.871Z,99048.47
2022-10-05T03:07:46.937Z,99049.31
2022-10-05T03:10:14.057Z,99042.34
2022-10-05T03:12:41.216Z,99038.91
2022-10-05T03:15:08.286Z,99042.34
2022-10-05T03:17:35.459Z,99031.13
2022-10-05T03:20:02.543Z,99027.69
2022-10-05T03:22:29.664Z,99030.28
2022-10-05T03:24:56.723Z,99037.22
2022-10-05T03:27:23.918Z,99029.53
2022-10-05T03:29:51.027Z,99026.81
2022-10-05T03:32:18.117Z,99034.63
2022-10-05T03:34:45.257Z,99023.50
2022-10-05T03:37:12.413Z,99030.38
2022-10-05T03:39:39.729Z,99028.72
2022-10-05T03:42:06.813Z,99019.97
2022-10-05T03:44:33.887Z,99020.06
2022-10-05T03:47:00.986Z,99020.06
2022-10-05T03:49:28.072Z,99013.13
2022-10-05T03:51:55.155Z,99014.88
2022-10-05T03:54:22.271Z,99001.88
2022-10-05T03:56:49.597Z,99007.09
2022-10-05T03:59:16.866Z,99012.28
2022-10-05T04:01:44.061Z,99005.44
2022-10-05T04:04:11.210Z,99002.81
2022-10-05T04:06:38.283Z,99008.03
2022-10-05T04:09:05.375Z,99007.16
2022-10-05T04:11:32.500Z,99008.03
2022-10-05T04:13:59.583Z,99010.63
2022-10-05T04:16:29.835Z,99014.13
2022-10-05T04:18:56.897Z,99008.94
2022-10-05T04:21:24.220Z,99008.94
2022-10-05T04:23:51.319Z,99009.75
2022-10-05T04:26:18.385Z,99020.16
2022-10-05T04:28:45.768Z,99014.13
2022-10-05T04:31:12.989Z,99008.09
2022-10-05T04:33:40.107Z,99002.91
2022-10-05T04:36:07.184Z,99012.47
2022-10-05T04:38:34.266Z,99014.25
2022-10-05T04:41:01.409Z,99015.06
2022-10-05T04:43:28.507Z,99017.66
2022-10-05T04:45:55.651Z,99019.44
2022-10-05T04:48:22.824Z,99031.59
2022-10-05T04:50:49.942Z,99037.63
2022-10-05T04:53:17.024Z,99025.59
2022-10-05T04:55:44.097Z,99022.97
2022-10-05T04:58:11.244Z,99022.13
2022-10-05T05:00:38.424Z,99022.13
2022-10-05T05:03:05.547Z,99016.91
2022-10-05T05:05:32.767Z,99017.03
2022-10-05T05:07:59.848Z,99016.09
2022-10-05T05:10:26.965Z,99019.63
2022-10-05T05:12:54.062Z,99010.06
2022-10-05T05:15:21.180Z,99024.84
2022-10-05T05:17:48.291Z,99017.03
2022-10-05T05:20:15.997Z,99024.84
2022-10-05T05:22:43.195Z,99017.88
2022-10-05T05:25:11.211Z,99025.66
2022-10-05T05:27:38.291Z,99018.81
2022-10-05T05:30:05.443Z,99026.59
2022-10-05T05:32:32.541Z,99030.13
2022-10-05T05:34:59.627Z,99034.41
2022-10-05T05:37:26.736Z,99041.38
2022-10-05T05:39:53.800Z,99043.13
2022-10-05T05:42:21.563Z,99043.13
2022-10-05T05:44:48.672Z,99044.91
2022-10-05T05:47:15.897Z,99047.50
2022-10-05T05:49:43.097Z,99048.34
2022-10-05T05:52:10.162Z,99050.94
2022-10-05T05:54:37.235Z,99057.03
2022-10-05T05:57:08.105Z,99056.22
2022-10-05T05:59:35.178Z,99051.84
2022-10-05T06:02:02.379Z,99051.84
2022-10-05T06:04:29.548Z,99048.34
2022-10-05T06:06:56.615Z,99056.22
2022-10-05T06:09:23.712Z,99050.19
2022-10-05T06:11:50.820Z,99049.34
2022-10-05T06:14:18.586Z,99064.84
2022-10-05T06:16:46.565Z,99070.97
2022-10-05T06:19:13.924Z,99077.00
2022-10-05T06:21:40.993Z,99082.19
2022-10-05T06:24:08.888Z,99079.59
2022-10-05T06:26:36.350Z,99088.22
2022-10-05T06:29:03.473Z,99090.94
2022-10-05T06:31:30.730Z,99098.63
2022-10-05T06:33:57.862Z,99096.03
2022-10-05T06:36:24.986Z,99096.13
2022-10-05T06:38:52.046Z,99090.94
2022-10-05T06:41:19.120Z,99091.75
2022-10-05T06:43:46.190Z,99102.06
2022-10-05T06:46:13.714Z,99096.13
2022-10-05T06:48:40.838Z,99096.97
2022-10-05T06:51:07.895Z,99096.97
2022-10-05T06:53:35.511Z,99108.28
2022-10-05T06:56:02.589Z,99109.13
2022-10-05T06:58:29.650Z,99110.88
2022-10-05T07:00:56.741Z,99109.00
2022-10-05T07:03:23.949Z,99103.94
2022-10-05T07:05:51.059Z,99109.94
2022-10-05T07:08:18.150Z,99116.81
2022-10-05T07:10:45.345Z,99118.56
2022-10-05T07:13:12.447Z,99103.94
2022-10-05T07:15:39.518Z,99101.22
2022-10-05T07:18:06.655Z,99117.66
2022-10-05T07:20:33.755Z,99108.19
2022-10-05T07:23:02.087Z,99121.19
2022-10-05T07:25:29.219Z,99114.22
2022-10-05T07:27:56.366Z,99116.63
2022-10-05T07:30:23.506Z,99125.34
2022-10-05T07:32:50.756Z,99131.28
2022-10-05T07:35:36.488Z,99127.78
2022-10-05T07:38:05.508Z,99118.28
2022-10-05T07:40:32.619Z,99121.75
2022-10-05T07:42:59.987Z,99114.78
2022-10-05T07:45:27.942Z,99122.28
2022-10-05T07:47:55.236Z,99127.47
2022-10-05T07:50:22.331Z,99122.28
2022-10-05T07:52:49.499Z,99128.19
2022-10-05T07:55:16.576Z,99130.78
2022-10-05T07:57:43.674Z,99134.16
2022-10-05T08:00:11.496Z,99128.34
2022-10-05T08:02:43.201Z,99133.28
2022-10-05T08:05:13.457Z,99131.09
2022-10-05T08:07:43.581Z,99132.78
2022-10-05T08:10:10.666Z,99122.69
2022-10-05T08:12:37.733Z,99120.69
2022-10-05T08:15:04.866Z,99124.59
2022-10-05T08:17:32.149Z,99120.97
2022-10-05T08:19:59.237Z,99121.72
2022-10-05T08:22:26.314Z,99120.75
2022-10-05T08:24:53.488Z,99116.19
2022-10-05T08:27:20.622Z,99115.25
2022-10-05T08:29:47.697Z,99118.69
2022-10-05T08:32:14.787Z,99117.06
2022-10-05T08:34:41.927Z,99114.81
2022-10-05T08:37:09.019Z,99116.22
2022-10-05T08:39:36.080Z,99113.28
2022-10-05T08:42:03.681Z,99110.16
2022-10-05T08:44:30.770Z,99109.34
2022-10-05T08:46:57.873Z,99112.84
2022-10-05T08:49:24.952Z,99112.03
2022-10-05T08:51:52.044Z,99112.78
2022-10-05T08:54:19.127Z,99104.13
2022-10-05T08:56:46.234Z,99109.94
2022-10-05T08:59:13.303Z,99102.13
2022-10-05T09:01:40.417Z,99101.16
2022-10-05T09:04:07.562Z,99104.19
2022-10-05T09:06:34.622Z,99100.34
2022-10-05T09:09:03.388Z,99103.47
2022-10-05T09:11:31.894Z,99097.22
2022-10-05T09:13:59.084Z,99093.69
2022-10-05T09:16:27.154Z,99098.91
2022-10-05T09:18:54.968Z,99095.47
2022-10-05T09:21:22.347Z,99094.63
2022-10-05T09:23:49.885Z,99092.84
2022-10-05T09:26:16.943Z,99088.41
2022-10-05T09:28:44.064Z,99087.34
2022-10-05T09:31:11.165Z,99088.47
2022-10-05T09:33:38.279Z,99093.81
2022-10-05T09:36:05.380Z,99080.78
2022-10-05T09:38:32.458Z,99084.22
2022-10-05T09:40:59.663Z,99081.41
2022-10-05T09:43:26.919Z,99073.50
2022-10-05T09:45:54.455Z,99081.41
2022-10-05T09:48:23.824Z,99078.72
2022-10-05T09:50:50.960Z,99081.81
2022-10-05T09:53:18.068Z,99080.28
2022-10-05T09:55:45.138Z,99075.97
2022-10-05T09:58:12.763Z,99067.25
2022-10-05T10:00:40.124Z,99066.31
2022-10-05T10:03:07.381Z,99071.72
2022-10-05T10:05:34.558Z,99067.47
2022-10-05T10:08:04.662Z,99070.19
2022-10-05T10:10:31.846Z,99066.84
2022-10-05T10:12:58.921Z,99060.88
2022-10-05T10:15:25.995Z,99062.38
2022-10-05T10:17:53.084Z,99059.03
2022-10-05T10:20:20.161Z,99059.84
2022-10-05T10:22:48.972Z,99059.84
2022-10-05T10:25:19.160Z,99059.84
2022-10-05T10:27:51.589Z,99062.38
2022-10-05T10:30:19.526Z,99062.38
2022-10-05T10:32:46.611Z,99062.66
2022-10-05T10:35:13.727Z,99051.63
2022-10-05T10:37:40.934Z,99058.50
2022-10-05T10:40:08.113Z,99058.59
2022-10-05T10:42:35.260Z,99043.19
2022-10-05T10:45:02.377Z,99046.72
2022-10-05T10:47:29.519Z,99046.72
2022-10-05T10:49:57.961Z,99044.97
2022-10-05T10:52:25.032Z,99044.13
2022-10-05T10:54:53.367Z,99046.72
2022-10-05T10:57:20.475Z,99042.47
2022-10-05T10:59:47.559Z,99050.16
2022-10-05T11:02:15.066Z,99032.91
2022-10-05T11:04:42.231Z,99039.75
2022-10-05T11:07:09.319Z,99038.09
2022-10-05T11:09:36.447Z,99033.72
2022-10-05T11:12:03.561Z,99030.28
2022-10-05T11:14:30.647Z,99022.59
2022-10-05T11:16:57.730Z,99018.22
2022-10-05T11:19:35.184Z,99018.94
2022-10-05T11:22:12.496Z,99022.09
2022-10-05T11:24:39.570Z,99017.59
2022-10-05T11:27:08.373Z,99016.66
2022-10-05T11:29:35.561Z,99013.22
2022-10-05T11:32:05.678Z,99012.19
2022-10-05T11:34:32.792Z,99000.94
2022-10-05T11:36:59.894Z,99004.59
2022-10-05T11:39:27.071Z,99001.78
2022-10-05T11:41:54.151Z,99005.22
2022-10-05T11:44:21.263Z,98993.84
2022-10-05T11:46:49.186Z,98991.25
2022-10-05T11:49:16.356Z,98987.81
2022-10-05T11:51:43.435Z,98984.31
2022-10-05T11:54:12.425Z,98985.94
2022-10-05T11:56:39.711Z,98978.16
2022-10-05T11:59:06.798Z,98979.81
2022-10-05T12:01:34.826Z,98976.38
2022-10-05T12:04:02.034Z,98973.78
2022-10-05T12:06:29.292Z,98979.69
2022-10-05T12:08:56.698Z,98970.97
2022-10-05T12:11:23.805Z,98974.41
2022-10-05T12:13:51.230Z,98977.81
2022-10-05T12:16:18.374Z,98974.47
2022-10-05T12:18:45.528Z,98973.66
2022-10-05T12:21:13.221Z,98977.94
2022-10-05T12:23:40.434Z,98976.16
2022-10-05T12:26:07.908Z,98977.00
2022-10-05T12:28:35.133Z,98977.81
2022-10-05T12:31:02.360Z,98983.97
2022-10-05T12:33:29.490Z,98966.59
2022-10-05T12:35:56.550Z,98970.97
2022-10-05T12:38:24.928Z,98983.03
2022-10-05T12:40:52.242Z,98970.97
2022-10-05T12:43:19.371Z,98972.75
2022-10-05T12:45:47.204Z,98977.81
2022-10-05T12:48:14.426Z,98972.63
2022-10-05T12:50:41.676Z,98965.63
2022-10-05T12:53:08.787Z,98970.84
2022-10-05T12:55:35.938Z,98975.22
2022-10-05T12:58:05.341Z,98970.22
2022-10-05T13:00:32.460Z,98973.66
2022-10-05T13:02:59.565Z,98975.22
2022-10-05T13:05:26.759Z,98972.75
2022-10-05T13:07:53.903Z,98966.91
2022-10-05T13:10:21.027Z,98960.63
2022-10-05T13:12:48.135Z,98965.63
2022-10-05T13:15:15.200Z,98967.28
2022-10-05T13:17:42.296Z,98959.50
2022-10-05T13:20:09.381Z,98963.03
2022-10-05T13:22:36.595Z,98950.03
2022-10-05T13:25:03.699Z,98950.84
2022-10-05T13:27:30.805Z,98948.38
2022-10-05T13:29:57.874Z,98948.88
2022-10-05T13:32:24.982Z,98944.94
2022-10-05T13:34:52.516Z,98942.66
2022-10-05T13:37:19.598Z,98941.09
2022-10-05T13:39:46.791Z,98945.06
2022-10-05T13:42:13.853Z,98938.81
2022-10-05T13:44:40.939Z,98935.16
2022-10-05T13:47:08.012Z,98934.94
2022-10-05T13:49:35.446Z,98934.94
2022-10-05T13:52:02.649Z,98940.97
2022-10-05T13:54:29.711Z,98934.84
2022-10-05T13:56:56.778Z,98933.16
2022-10-05T13:59:23.893Z,98930.69
2022-10-05T14:01:51.024Z,98929.03
2022-10-05T14:04:18.216Z,98933.38
2022-10-05T14:06:45.392Z,98929.94
2022-10-05T14:09:12.459Z,98924.75
2022-10-05T14:11:40.095Z,98926.50
2022-10-05T14:14:07.406Z,98928.28
2022-10-05T14:16:35.566Z,98921.44
2022-10-05T14:19:02.710Z,98918.09
2022-10-05T14:21:29.827Z,98920.69
2022-10-05T14:24:00.005Z,98918.91
2022-10-05T14:26:27.367Z,98913.81
2022-10-05T14:28:54.490Z,98909.44
2022-10-05T14:31:21.592Z,98913.81
2022-10-05T14:33:48.693Z,98915.59
2022-10-05T14:36:22.460Z,98900.94
2022-10-05T14:38:52.144Z,98903.53
2022-10-05T14:41:19.313Z,98901.03
2022-10-05T14:43:47.839Z,98899.25
2022-10-05T14:46:15.387Z,98898.41
2022-10-05T14:48:42.779Z,98900.06
2022-10-05T14:51:09.868Z,98885.41
2022-10-05T14:53:37.996Z,98891.56
2022-10-05T14:56:05.273Z,98889.78
2022-10-05T14:58:32.366Z,98886.34
2022-10-05T15:00:59.498Z,98883.75
2022-10-05T15:03:27.318Z,98874.06
2022-10-05T15:05:54.458Z,98879.38
2022-10-05T15:08:21.719Z,98880.00
2022-10-05T15:10:49.955Z,98885.09
2022-10-05T15:13:17.144Z,98881.66
2022-10-05T15:15:44.240Z,98888.44
2022-10-05T15:18:11.683Z,98878.00
2022-10-05T15:20:38.821Z,98889.25
2022-10-05T15:23:05.953Z,98877.06
2022-10-05T15:25:33.022Z,98876.13
2022-10-05T15:28:00.205Z,98873.53
2022-10-05T15:30:27.500Z,98870.09
2022-10-05T15:32:55.537Z,98870.81
2022-10-05T15:35:22.633Z,98871.66
2022-10-05T15:37:49.711Z,98869.06
2022-10-05T15:40:17.090Z,98876.84
2022-10-05T15:42:45.322Z,98868.22
2022-10-05T15:45:13.210Z,98868.09
2022-10-05T15:47:40.286Z,98865.50
2022-10-05T15:50:07.386Z,98875.91
2022-10-05T15:52:34.470Z,98873.31
2022-10-05T15:55:01.543Z,98871.53
2022-10-05T15:57:28.637Z,98866.66
2022-10-05T15:59:55.775Z,98871.59
2022-10-05T16:02:22.941Z,98869.88
2022-10-05T16:04:50.167Z,98876.72
2022-10-05T16:07:35.730Z,98869.56
2022-10-05T16:10:02.819Z,98871.72
2022-10-05T16:12:29.961Z,98872.22
2022-10-05T16:14:57.061Z,98865.47
2022-10-05T16:17:24.211Z,98868.28
2022-10-05T16:19:51.288Z,98866.50
2022-10-05T16:22:18.520Z,98879.53
2022-10-05T16:24:47.331Z,98876.31
2022-10-05T16:27:16.150Z,98875.59
2022-10-05T16:29:43.238Z,98878.19
2022-10-05T16:32:10.326Z,98879.97
2022-10-05T16:34:37.453Z,98880.81
2022-10-05T16:37:04.633Z,98878.91
2022-10-05T16:39:31.708Z,98891.09
2022-10-05T16:41:58.800Z,98884.50
2022-10-05T16:44:25.884Z,98887.94
2022-10-05T16:46:53.668Z,98889.03
2022-10-05T16:49:20.842Z,98891.72
2022-10-05T16:51:47.961Z,98892.78
2022-10-05T16:54:15.048Z,98891.00
2022-10-05T16:56:42.193Z,98890.28
2022-10-05T16:59:09.308Z,98899.13
2022-10-05T17:01:42.227Z,98904.31
2022-10-05T17:04:09.681Z,98908.66
2022-10-05T17:06:37.025Z,98907.00
2022-10-05T17:09:04.094Z,98911.38
2022-10-05T17:11:31.199Z,98908.78
2022-10-05T17:13:58.382Z,98907.13
2022-10-05T17:16:25.494Z,98906.19
2022-10-05T17:18:52.564Z,98912.22
2022-10-05T17:21:21.428Z,98907.97
2022-10-05T17:23:48.629Z,98907.97
2022-10-05T17:26:16.118Z,98914.00
2022-10-05T17:28:44.321Z,98913.25
2022-10-05T17:31:11.493Z,98914.13
2022-10-05T17:33:39.261Z,98915.97
2022-10-05T17:36:08.492Z,98911.59
2022-10-05T17:38:35.709Z,98919.41
2022-10-05T17:41:06.460Z,98914.19
2022-10-05T17:43:33.562Z,98923.78
2022-10-05T17:46:00.755Z,98920.22
2022-10-05T17:48:27.903Z,98922.97
2022-10-05T17:51:13.921Z,98922.75
2022-10-05T17:53:59.844Z,98928.66
2022-10-05T17:56:27.149Z,98926.00
2022-10-05T17:58:54.715Z,98927.53
2022-10-05T18:01:21.870Z,98928.59
2022-10-05T18:03:49.567Z,98924.41
2022-10-05T18:06:16.708Z,98921.94
2022-10-05T18:08:43.798Z,98927.13
2022-10-05T18:11:10.865Z,98927.97
2022-10-05T18:13:38.001Z,98922.84
2022-10-05T18:16:05.206Z,98929.72
2022-10-05T18:18:32.329Z,98930.66
2022-10-05T18:20:59.412Z,98928.88
2022-10-05T18:23:26.495Z,98942.75
2022-10-05T18:25:53.574Z,98934.09
2022-10-05T18:28:20.734Z,98935.84
2022-10-05T18:30:49.436Z,98942.84
2022-10-05T18:33:16.598Z,98941.06
2022-10-05T18:35:44.142Z,98937.63
2022-10-05T18:38:11.312Z,98941.06
2022-10-05T18:40:38.416Z,98938.47
2022-10-05T18:43:05.490Z,98942.75
2022-10-05T18:45:32.578Z,98948.03
2022-10-05T18:47:59.700Z,98949.81
2022-10-05T18:50:26.816Z,98944.59
2022-10-05T18:52:53.905Z,98948.88
2022-10-05T18:55:20.999Z,98948.03
2022-10-05T18:57:48.122Z,98951.59
2022-10-05T19:00:15.288Z,98956.78
2022-10-05T19:02:43.156Z,98957.75
2022-10-05T19:05:23.798Z,98959.50
2022-10-05T19:07:59.319Z,98962.09
2022-10-05T19:10:26.406Z,98964.50
2022-10-05T19:12:53.483Z,98960.84
2022-10-05T19:15:20.567Z,98970.31
2022-10-05T19:17:47.658Z,98965.94
2022-10-05T19:20:17.068Z,98966.88
2022-10-05T19:22:44.221Z,98975.84
2022-10-05T19:25:13.404Z,98973.88
2022-10-05T19:27:40.511Z,98972.09
2022-10-05T19:30:07.604Z,98973.13
2022-10-05T19:32:34.747Z,98980.09
2022-10-05T19:35:01.842Z,98985.31
2022-10-05T19:37:30.984Z,98995.84
2022-10-05T19:39:58.726Z,98995.00
2022-10-05T19:42:25.873Z,98999.16
2022-10-05T19:44:52.960Z,99004.47
2022-10-05T19:47:20.117Z,99009.56
2022-10-05T19:49:47.201Z,99007.09
2022-10-05T19:52:14.368Z,99012.16
2022-10-05T19:54:41.834Z,99018.31
2022-10-05T19:57:10.577Z,99024.25
2022-10-05T19:59:40.498Z,99016.53
2022-10-05T20:02:07.673Z,99024.34
2022-10-05T20:04:34.807Z,99029.88
2022-10-05T20:07:02.444Z,99039.53
2022-10-05T20:09:29.531Z,99039.66
2022-10-05T20:11:56.833Z,99036.44
2022-10-05T20:14:23.912Z,99043.41
2022-10-05T20:17:09.859Z,99047.78
2022-10-05T20:19:55.621Z,99047.03
2022-10-05T20:22:22.873Z,99054.03
2022-10-05T20:24:50.018Z,99060.16
2022-10-05T20:27:18.864Z,99058.50
2022-10-05T20:29:46.887Z,99068.94
2022-10-05T20:32:14.109Z,99070.78
2022-10-05T20:34:41.516Z,99072.56
2022-10-05T20:37:08.669Z,99071.72
2022-10-05T20:39:35.795Z,99079.53
2022-10-05T20:42:02.881Z,99079.53
2022-10-05T20:44:29.975Z,99081.38
2022-10-05T20:46:58.454Z,99087.53
2022-10-05T20:49:26.357Z,99091.91
2022-10-05T20:51:55.710Z,99095.34
2022-10-05T20:54:22.842Z,99101.50
2022-10-05T20:56:50.115Z,99104.91
2022-10-05T20:59:17.268Z,99100.66
2022-10-05T21:01:47.911Z,99102.41
2022-10-05T21:04:15.097Z,99110.22
2022-10-05T21:06:43.794Z,99111.25
2022-10-05T21:09:11.581Z,99116.47
2022-10-05T21:11:39.616Z,99121.56
2022-10-05T21:14:06.728Z,99126.03
2022-10-05T21:16:38.177Z,99118.25
2022-10-05T21:19:09.517Z,99122.63
2022-10-05T21:21:36.638Z,99125.22
2022-10-05T21:24:03.715Z,99133.94
2022-10-05T21:26:31.123Z,99134.75
2022-10-05T21:28:58.449Z,99138.31
2022-10-05T21:31:26.740Z,99136.66
2022-10-05T21:33:54.023Z,99139.25
2022-10-05T21:36:23.917Z,99142.78
2022-10-05T21:38:52.007Z,99144.53
2022-10-05T21:41:19.174Z,99151.44
2022-10-05T21:43:46.356Z,99154.03
2022-10-05T21:46:13.473Z,99159.22
2022-10-05T21:48:40.641Z,99170.56
2022-10-05T21:51:07.727Z,99175.75
2022-10-05T21:53:34.946Z,99170.56
2022-10-05T21:56:03.032Z,99169.72
2022-10-05T21:58:30.594Z,99175.03
2022-10-05T22:00:58.026Z,99178.47
2022-10-05T22:03:25.260Z,99175.03
2022-10-05T22:05:52.545Z,99184.59
2022-10-05T22:08:19.690Z,99187.22
2022-10-05T22:10:46.769Z,99187.28
2022-10-05T22:13:13.853Z,99180.31
2022-10-05T22:15:40.975Z,99183.78
2022-10-05T22:18:08.083Z,99180.31
2022-10-05T22:20:35.227Z,99189.91
2022-10-05T22:23:02.374Z,99190.72
2022-10-05T22:25:33.803Z,99195.94
2022-10-05T22:28:00.939Z,99197.81
2022-10-05T22:30:28.062Z,99198.63
2022-10-05T22:32:55.243Z,99203.84
2022-10-05T22:35:22.374Z,99207.38
2022-10-05T22:37:49.486Z,99211.66
2022-10-05T22:40:16.575Z,99211.75
2022-10-05T22:42:43.715Z,99214.34
2022-10-05T22:45:10.818Z,99219.56
2022-10-05T22:47:37.887Z,99219.56
2022-10-05T22:50:04.956Z,99221.34
2022-10-05T22:52:32.047Z,99221.34
2022-10-05T22:54:59.168Z,99223.94
2022-10-05T22:57:26.231Z,99224.75
2022-10-05T22:59:53.315Z,99225.69
2022-10-05T23:02:20.469Z,99225.69
2022-10-05T23:04:47.579Z,99232.66
2022-10-05T23:07:14.655Z,99229.22
2022-10-05T23:09:41.739Z,99225.78
2022-10-05T23:12:08.876Z,99223.19
2022-10-05T23:14:36.006Z,99225.78
2022-10-05T23:17:03.133Z,99225.78
2022-10-05T23:19:30.211Z,99230.16
2022-10-05T23:21:57.311Z,99230.16
2022-10-05T23:24:24.396Z,99220.69
2022-10-05T23:26:51.644Z,99231.09
2022-10-05T23:29:18.744Z,99231.94
2022-10-05T23:31:45.877Z,99225.03
2022-10-05T23:34:13.029Z,99242.34
2022-10-05T23:36:40.129Z,99230.25
2022-10-05T23:39:07.229Z,99237.22
2022-10-05T23:41:34.512Z,99238.97
2022-10-05T23:44:01.579Z,99240.63
2022-10-05T23:46:28.754Z,99245.00
2022-10-05T23:48:55.926Z,99253.66
2022-10-05T23:51:23.080Z,99252.00
2022-10-05T23:53:50.191Z,99256.34
2022-10-05T23:56:17.265Z,99263.22
2022-10-05T23:58:45.043Z,99258.03
